createdAt,value
2022-08-11T00:01:37.965Z,68.26
2022-08-11T00:03:46.076Z,68.46
2022-08-11T00:05:52.768Z,68.63
2022-08-11T00:07:57.775Z,68.77
2022-08-11T00:10:01.020Z,70.07
2022-08-11T00:12:04.872Z,71.06
2022-08-11T00:14:16.198Z,69.78
2022-08-11T00:16:22.113Z,71.00
2022-08-11T00:18:25.299Z,70.64
2022-08-11T00:20:32.171Z,71.87
2022-08-11T00:22:36.732Z,73.73
2022-08-11T00:24:53.508Z,74.00
2022-08-11T00:26:58.162Z,74.32
2022-08-11T00:29:11.069Z,74.31
2022-08-11T00:31:24.308Z,74.80
2022-08-11T00:33:44.458Z,75.58
2022-08-11T00:35:51.317Z,76.29
2022-08-11T00:38:01.237Z,76.58
2022-08-11T00:40:05.136Z,76.68
2022-08-11T00:42:16.003Z,76.57
2022-08-11T00:44:33.874Z,78.65
2022-08-11T00:46:46.570Z,80.41
2022-08-11T00:49:01.790Z,81.88
2022-08-11T00:51:16.769Z,82.74
2022-08-11T00:53:32.061Z,83.34
2022-08-11T00:56:18.372Z,82.53
2022-08-11T00:58:56.410Z,82.91
2022-08-11T01:01:23.329Z,83.17
2022-08-11T01:03:34.085Z,83.56
2022-08-11T01:05:47.523Z,84.83
2022-08-11T01:08:10.442Z,85.58
2022-08-11T01:10:32.144Z,84.39
2022-08-11T01:12:45.756Z,85.31
2022-08-11T01:15:21.703Z,86.05
2022-08-11T01:17:58.607Z,86.81
2022-08-11T01:20:46.181Z,86.34
2022-08-11T01:23:22.689Z,86.46
2022-08-11T01:25:57.315Z,87.97
2022-08-11T01:28:42.108Z,90.16
2022-08-11T01:31:03.111Z,88.96
2022-08-11T01:33:39.380Z,89.14
2022-08-11T01:36:00.609Z,89.16
2022-08-11T01:38:28.910Z,89.84
2022-08-11T01:41:03.710Z,90.13
2022-08-11T01:43:38.321Z,90.95
2022-08-11T01:45:44.238Z,91.40
2022-08-11T01:48:02.029Z,92.00
2022-08-11T01:50:11.318Z,92.25
2022-08-11T01:52:30.299Z,92.36
2022-08-11T01:54:43.851Z,92.82
2022-08-11T01:56:53.909Z,93.11
2022-08-11T01:59:04.967Z,93.33
2022-08-11T02:01:31.208Z,93.57
2022-08-11T02:03:38.108Z,93.58
2022-08-11T02:06:01.196Z,93.74
2022-08-11T02:08:11.646Z,93.38
2022-08-11T02:10:41.178Z,93.43
2022-08-11T02:12:56.215Z,93.68
2022-08-11T02:15:07.166Z,93.37
2022-08-11T02:17:16.235Z,93.25
2022-08-11T02:19:49.264Z,92.56
2022-08-11T02:22:13.513Z,92.71
2022-08-11T02:24:21.745Z,94.37
2022-08-11T02:26:26.785Z,94.06
2022-08-11T02:28:40.210Z,92.74
2022-08-11T02:32:05.091Z,95.88
2022-08-11T02:33:44.849Z,96.82
2022-08-11T02:35:51.478Z,96.87
2022-08-11T02:38:06.008Z,97.11
2022-08-11T02:40:20.828Z,95.64
2022-08-11T02:42:35.125Z,95.55
2022-08-11T02:44:43.126Z,96.82
2022-08-11T02:46:52.875Z,98.66
2022-08-11T02:49:19.119Z,97.54
2022-08-11T02:51:29.028Z,97.18
2022-08-11T02:53:38.037Z,97.57
2022-08-11T02:55:57.368Z,97.76
2022-08-11T02:58:11.012Z,98.28
2022-08-11T03:00:16.184Z,98.40
2022-08-11T03:02:31.583Z,99.50
2022-08-11T03:04:45.002Z,99.65
2022-08-11T03:06:51.316Z,100.00
2022-08-11T03:08:57.531Z,100.00
2022-08-11T03:11:33.852Z,99.70
2022-08-11T03:13:58.605Z,99.38
2022-08-11T03:16:37.569Z,99.64
2022-08-11T03:18:47.010Z,99.26
2022-08-11T03:20:57.522Z,99.55
2022-08-11T03:23:19.635Z,100.00
2022-08-11T03:25:31.644Z,100.00
2022-08-11T03:27:44.077Z,100.00
2022-08-11T03:30:02.986Z,100.00
2022-08-11T03:32:11.111Z,100.00
2022-08-11T03:34:16.750Z,100.00
2022-08-11T03:37:15.669Z,100.00
2022-08-11T03:39:11.158Z,100.00
2022-08-11T03:42:01.914Z,100.00
2022-08-11T03:44:15.528Z,100.00
2022-08-11T03:46:27.416Z,100.00
2022-08-11T03:48:42.008Z,100.00
2022-08-11T03:51:02.091Z,100.00
2022-08-11T03:53:13.646Z,100.00
2022-08-11T03:55:24.974Z,100.00
2022-08-11T03:58:09.961Z,100.00
2022-08-11T04:00:21.018Z,100.00
2022-08-11T04:02:39.601Z,100.00
2022-08-11T04:05:25.410Z,100.00
2022-08-11T04:08:22.204Z,100.00
2022-08-11T04:10:41.826Z,100.00
2022-08-11T04:12:59.597Z,100.00
2022-08-11T04:15:31.830Z,100.00
2022-08-11T04:18:03.341Z,100.00
2022-08-11T04:20:20.517Z,100.00
2022-08-11T04:22:50.986Z,100.00
2022-08-11T04:25:23.224Z,100.00
2022-08-11T04:27:43.147Z,100.00
2022-08-11T04:30:01.907Z,100.00
2022-08-11T04:32:17.845Z,100.00
2022-08-11T04:35:08.093Z,100.00
2022-08-11T04:37:31.602Z,100.00
2022-08-11T04:39:44.823Z,100.00
2022-08-11T04:42:31.937Z,100.00
2022-08-11T04:44:59.897Z,100.00
2022-08-11T04:48:03.854Z,100.00
2022-08-11T04:50:41.541Z,100.00
2022-08-11T04:53:34.137Z,100.00
2022-08-11T04:56:20.529Z,100.00
2022-08-11T04:58:47.299Z,100.00
2022-08-11T05:01:18.707Z,100.00
2022-08-11T05:03:41.089Z,100.00
2022-08-11T05:06:17.857Z,100.00
2022-08-11T05:08:48.642Z,100.00
2022-08-11T05:11:18.438Z,100.00
2022-08-11T05:13:45.934Z,100.00
2022-08-11T05:19:04.562Z,100.00
2022-08-11T05:21:44.636Z,100.00
2022-08-11T05:24:12.547Z,100.00
2022-08-11T05:26:47.815Z,99.88
2022-08-11T05:29:19.687Z,96.47
2022-08-11T05:31:43.956Z,92.44
2022-08-11T05:34:06.697Z,89.71
2022-08-11T05:36:30.937Z,85.87
2022-08-11T05:38:54.113Z,81.34
2022-08-11T05:41:17.090Z,78.99
2022-08-11T05:43:37.901Z,76.26
2022-08-11T05:46:20.123Z,71.22
2022-08-11T05:48:40.895Z,69.64
2022-08-11T05:51:03.132Z,66.50
2022-08-11T05:53:45.840Z,64.42
2022-08-11T05:58:42.646Z,58.23
2022-08-11T06:00:47.450Z,54.59
2022-08-11T06:02:55.323Z,54.91
2022-08-11T06:05:02.313Z,51.01
2022-08-11T06:07:09.279Z,48.42
2022-08-11T06:09:14.380Z,47.83
2022-08-11T06:11:18.890Z,48.28
2022-08-11T06:13:46.439Z,46.76
2022-08-11T06:15:51.969Z,47.12
2022-08-11T06:17:56.151Z,47.67
2022-08-11T06:20:04.209Z,45.99
2022-08-11T06:22:12.921Z,45.81
2022-08-11T06:24:16.529Z,44.86
2022-08-11T06:26:20.458Z,43.62
2022-08-11T06:28:30.579Z,44.01
2022-08-11T06:30:40.444Z,43.19
2022-08-11T06:32:45.663Z,42.48
2022-08-11T06:35:13.925Z,41.23
2022-08-11T06:37:22.210Z,40.28
2022-08-11T06:39:30.208Z,39.93
2022-08-11T06:41:42.090Z,38.59
2022-08-11T06:43:55.598Z,39.30
2022-08-11T06:46:03.249Z,38.19
2022-08-11T06:48:11.279Z,38.35
2022-08-11T06:50:35.355Z,36.87
2022-08-11T06:52:40.255Z,35.81
2022-08-11T06:54:45.870Z,35.17
2022-08-11T06:57:28.825Z,34.60
2022-08-11T06:59:46.829Z,34.86
2022-08-11T07:01:59.758Z,34.11
2022-08-11T07:04:07.093Z,34.29
2022-08-11T07:06:34.436Z,32.11
2022-08-11T07:09:25.701Z,30.97
2022-08-11T07:12:20.005Z,30.71
2022-08-11T07:14:44.329Z,31.02
2022-08-11T07:16:49.613Z,29.84
2022-08-11T07:19:16.604Z,29.43
2022-08-11T07:22:00.791Z,29.19
2022-08-11T07:24:34.253Z,28.91
2022-08-11T07:27:08.956Z,28.95
2022-08-11T07:29:16.576Z,29.47
2022-08-11T07:31:25.603Z,27.73
2022-08-11T07:34:07.401Z,28.23
2022-08-11T07:35:59.106Z,27.40
2022-08-11T07:38:06.981Z,27.04
2022-08-11T07:40:12.503Z,27.94
2022-08-11T07:42:17.691Z,28.84
2022-08-11T07:44:33.938Z,25.42
2022-08-11T07:47:01.134Z,25.51
2022-08-11T07:49:22.661Z,27.22
2022-08-11T07:51:45.088Z,26.26
2022-08-11T07:54:03.061Z,26.32
2022-08-11T07:56:21.785Z,26.83
2022-08-11T07:58:58.894Z,24.75
2022-08-11T08:01:23.529Z,26.57
2022-08-11T08:03:54.514Z,25.06
2022-08-11T08:06:36.368Z,25.59
2022-08-11T08:08:58.943Z,25.60
2022-08-11T08:11:27.532Z,25.54
2022-08-11T08:13:48.883Z,24.55
2022-08-11T08:18:39.148Z,24.87
2022-08-11T08:20:47.030Z,25.96
2022-08-11T08:22:57.017Z,24.86
2022-08-11T08:25:01.873Z,24.83
2022-08-11T08:27:05.049Z,26.48
2022-08-11T08:29:26.152Z,24.59
2022-08-11T08:31:29.276Z,24.45
2022-08-11T08:33:33.217Z,25.05
2022-08-11T08:35:37.886Z,24.91
2022-08-11T08:37:59.813Z,24.72
2022-08-11T08:40:04.476Z,25.50
2022-08-11T08:42:11.689Z,24.18
2022-08-11T08:46:44.042Z,25.94
2022-08-11T08:48:48.525Z,26.75
2022-08-11T08:51:21.802Z,26.45
2022-08-11T08:53:29.157Z,25.53
2022-08-11T08:55:34.031Z,27.04
2022-08-11T08:57:39.508Z,26.03
2022-08-11T08:59:49.314Z,25.86
2022-08-11T09:01:59.028Z,25.39
2022-08-11T09:04:10.598Z,26.14
2022-08-11T09:06:18.213Z,24.74
2022-08-11T09:08:21.791Z,25.26
2022-08-11T09:10:25.601Z,25.63
2022-08-11T09:12:35.785Z,24.98
2022-08-11T09:15:03.437Z,27.00
2022-08-11T09:17:06.433Z,25.99
2022-08-11T09:19:09.944Z,25.38
2022-08-11T09:21:45.400Z,26.03
2022-08-11T09:24:07.734Z,24.48
2022-08-11T09:26:35.547Z,24.07
2022-08-11T09:28:40.160Z,26.32
2022-08-11T09:30:43.981Z,24.64
2022-08-11T09:32:46.917Z,25.28
2022-08-11T09:34:51.996Z,25.35
2022-08-11T09:37:13.463Z,24.78
2022-08-11T09:39:56.828Z,23.85
2022-08-11T09:42:03.375Z,24.71
2022-08-11T09:44:26.979Z,23.10
2022-08-11T09:46:31.103Z,23.13
2022-08-11T09:48:37.604Z,23.44
2022-08-11T09:50:41.047Z,24.01
2022-08-11T09:53:09.967Z,24.12
2022-08-11T09:55:11.968Z,24.90
2022-08-11T09:57:32.297Z,23.59
2022-08-11T09:59:36.634Z,23.91
2022-08-11T10:01:42.945Z,22.55
2022-08-11T10:03:45.982Z,22.64
2022-08-11T10:06:17.464Z,21.60
2022-08-11T10:08:21.868Z,22.53
2022-08-11T10:10:25.768Z,22.95
2022-08-11T10:12:30.648Z,23.67
2022-08-11T10:14:51.714Z,23.64
2022-08-11T10:16:56.364Z,22.70
2022-08-11T10:19:01.191Z,22.55
2022-08-11T10:24:00.228Z,22.80
2022-08-11T10:26:40.814Z,21.67
2022-08-11T10:29:02.424Z,21.55
2022-08-11T10:31:24.802Z,22.05
2022-08-11T10:33:59.353Z,22.00
2022-08-11T10:36:03.004Z,22.46
2022-08-11T10:38:09.745Z,22.35
2022-08-11T10:40:16.711Z,22.26
2022-08-11T10:42:55.378Z,22.39
2022-08-11T10:45:01.914Z,23.35
2022-08-11T10:47:23.635Z,23.30
2022-08-11T10:49:28.543Z,23.50
2022-08-11T10:51:53.678Z,23.30
2022-08-11T10:54:14.892Z,23.77
2022-08-11T10:56:35.972Z,24.03
2022-08-11T10:58:49.310Z,23.80
2022-08-11T11:00:56.892Z,23.40
2022-08-11T11:03:22.209Z,24.19
2022-08-11T11:05:30.395Z,24.43
2022-08-11T11:07:44.200Z,23.47
2022-08-11T11:09:50.716Z,23.47
2022-08-11T11:12:13.534Z,23.09
2022-08-11T11:14:35.771Z,23.89
2022-08-11T11:17:07.222Z,23.78
2022-08-11T11:19:11.280Z,23.63
2022-08-11T11:21:25.517Z,23.46
2022-08-11T11:23:35.709Z,23.00
2022-08-11T11:26:07.439Z,23.43
2022-08-11T11:28:20.693Z,23.87
2022-08-11T11:30:25.178Z,23.63
2022-08-11T11:32:34.211Z,23.47
2022-08-11T11:35:05.938Z,23.33
2022-08-11T11:37:12.504Z,23.89
2022-08-11T11:39:19.133Z,23.79
2022-08-11T11:41:28.175Z,24.52
2022-08-11T11:43:31.945Z,23.77
2022-08-11T11:45:35.042Z,24.64
2022-08-11T11:47:38.924Z,24.19
2022-08-11T11:49:44.060Z,24.65
2022-08-11T11:51:49.986Z,23.83
2022-08-11T11:53:55.234Z,23.69
2022-08-11T11:55:59.210Z,23.85
2022-08-11T11:58:22.242Z,24.22
2022-08-11T12:00:51.515Z,24.42
2022-08-11T12:02:54.904Z,23.84
2022-08-11T12:04:58.176Z,24.25
2022-08-11T12:07:15.170Z,23.58
2022-08-11T12:09:23.226Z,24.19
2022-08-11T12:11:46.183Z,22.95
2022-08-11T12:13:51.373Z,23.63
2022-08-11T12:16:31.170Z,23.34
2022-08-11T12:18:44.455Z,23.20
2022-08-11T12:20:47.518Z,22.80
2022-08-11T12:23:07.783Z,22.40
2022-08-11T12:25:29.597Z,21.78
2022-08-11T12:27:32.823Z,21.38
2022-08-11T12:29:36.050Z,22.13
2022-08-11T12:31:40.692Z,21.52
2022-08-11T12:37:23.582Z,21.47
2022-08-11T12:40:16.811Z,22.44
2022-08-11T12:42:25.113Z,20.97
2022-08-11T12:44:49.743Z,21.62
2022-08-11T12:46:52.829Z,21.01
2022-08-11T12:49:15.395Z,21.46
2022-08-11T12:52:11.768Z,21.72
2022-08-11T12:54:10.566Z,21.69
2022-08-11T12:56:30.987Z,21.68
2022-08-11T12:58:36.152Z,21.30
2022-08-11T13:00:56.766Z,21.22
2022-08-11T13:03:17.489Z,21.56
2022-08-11T13:05:21.060Z,21.52
2022-08-11T13:07:24.783Z,20.25
2022-08-11T13:09:27.754Z,21.13
2022-08-11T13:11:57.059Z,20.65
2022-08-11T13:14:02.596Z,21.62
2022-08-11T13:16:08.460Z,21.19
2022-08-11T13:18:12.272Z,21.15
2022-08-11T13:20:20.096Z,21.47
2022-08-11T13:22:24.391Z,21.60
2022-08-11T13:24:28.571Z,21.37
2022-08-11T13:26:47.725Z,21.40
2022-08-11T13:28:53.652Z,21.29
2022-08-11T13:31:12.446Z,20.78
2022-08-11T13:33:17.095Z,21.75
2022-08-11T13:35:21.000Z,21.51
2022-08-11T13:38:19.726Z,21.31
2022-08-11T13:39:47.942Z,21.05
2022-08-11T13:41:51.222Z,20.62
2022-08-11T13:43:54.629Z,20.70
2022-08-11T13:46:13.279Z,20.70
2022-08-11T13:48:17.425Z,20.79
2022-08-11T13:50:22.112Z,21.06
2022-08-11T13:52:26.397Z,20.86
2022-08-11T13:54:31.941Z,20.85
2022-08-11T13:56:39.709Z,20.53
2022-08-11T13:58:43.606Z,20.46
2022-08-11T14:00:55.716Z,20.92
2022-08-11T14:03:00.720Z,20.60
2022-08-11T14:05:07.121Z,20.49
2022-08-11T14:07:12.085Z,20.49
2022-08-11T14:09:17.414Z,21.29
2022-08-11T14:12:22.333Z,21.38
2022-08-11T14:14:01.462Z,21.45
2022-08-11T14:16:11.129Z,21.70
2022-08-11T14:18:19.905Z,21.68
2022-08-11T14:20:39.374Z,21.31
2022-08-11T14:22:43.606Z,20.96
2022-08-11T14:24:49.447Z,21.78
2022-08-11T14:26:52.831Z,21.64
2022-08-11T14:28:59.128Z,21.46
2022-08-11T14:31:05.373Z,21.25
2022-08-11T14:33:17.363Z,21.58
2022-08-11T14:35:26.491Z,21.51
2022-08-11T14:37:29.780Z,20.98
2022-08-11T14:39:36.230Z,20.62
2022-08-11T14:42:10.633Z,21.73
2022-08-11T14:44:33.851Z,21.01
2022-08-11T14:46:55.150Z,21.63
2022-08-11T14:48:58.144Z,22.53
2022-08-11T14:51:05.527Z,22.63
2022-08-11T14:53:10.528Z,22.48
2022-08-11T14:55:35.354Z,22.06
2022-08-11T14:57:55.393Z,21.89
2022-08-11T15:00:02.068Z,21.95
2022-08-11T15:02:23.709Z,22.07
2022-08-11T15:04:35.277Z,22.72
2022-08-11T15:06:43.037Z,22.84
2022-08-11T15:08:58.039Z,23.30
2022-08-11T15:11:01.197Z,23.17
2022-08-11T15:13:03.670Z,22.74
2022-08-11T15:15:25.592Z,22.93
2022-08-11T15:17:43.176Z,23.41
2022-08-11T15:20:01.412Z,23.41
2022-08-11T15:22:27.851Z,23.05
2022-08-11T15:24:31.389Z,22.83
2022-08-11T15:26:55.478Z,23.20
2022-08-11T15:29:18.522Z,23.75
2022-08-11T15:31:52.439Z,23.98
2022-08-11T15:34:14.405Z,23.63
2022-08-11T15:36:39.127Z,24.21
2022-08-11T15:38:48.997Z,24.02
2022-08-11T15:41:16.929Z,23.82
2022-08-11T15:43:40.025Z,23.91
2022-08-11T15:45:50.152Z,24.36
2022-08-11T15:48:05.341Z,24.19
2022-08-11T15:50:13.834Z,24.54
2022-08-11T15:52:22.853Z,24.12
2022-08-11T15:54:31.048Z,24.17
2022-08-11T15:56:34.389Z,24.26
2022-08-11T15:59:10.739Z,24.41
2022-08-11T16:01:40.575Z,24.31
2022-08-11T16:04:08.929Z,24.60
2022-08-11T16:06:13.827Z,24.46
2022-08-11T16:08:26.021Z,24.23
2022-08-11T16:10:39.419Z,24.69
2022-08-11T16:13:18.173Z,24.17
2022-08-11T16:15:38.786Z,24.89
2022-08-11T16:17:44.796Z,24.66
2022-08-11T16:19:50.289Z,24.68
2022-08-11T16:21:54.635Z,25.03
2022-08-11T16:23:59.099Z,24.82
2022-08-11T16:27:07.218Z,25.07
2022-08-11T16:28:31.567Z,25.42
2022-08-11T16:30:36.306Z,25.17
2022-08-11T16:32:41.793Z,25.37
2022-08-11T16:35:03.577Z,25.41
2022-08-11T16:37:24.278Z,25.53
2022-08-11T16:39:28.457Z,25.70
2022-08-11T16:41:52.854Z,25.79
2022-08-11T16:44:13.511Z,25.88
2022-08-11T16:46:32.631Z,26.30
2022-08-11T16:48:38.761Z,26.31
2022-08-11T16:50:42.608Z,26.34
2022-08-11T16:52:45.629Z,26.14
2022-08-11T16:54:49.045Z,26.29
2022-08-11T16:56:54.927Z,26.37
2022-08-11T16:59:17.838Z,26.39
2022-08-11T17:01:22.748Z,26.65
2022-08-11T17:03:43.354Z,26.43
2022-08-11T17:06:09.166Z,26.72
2022-08-11T17:08:29.673Z,26.56
2022-08-11T17:10:56.462Z,26.48
2022-08-11T17:13:10.019Z,26.24
2022-08-11T17:15:36.154Z,26.56
2022-08-11T17:17:40.842Z,26.57
2022-08-11T17:20:40.621Z,26.26
2022-08-11T17:22:31.072Z,26.23
2022-08-11T17:24:36.008Z,26.41
2022-08-11T17:26:57.073Z,26.73
2022-08-11T17:29:03.067Z,26.69
2022-08-11T17:31:27.654Z,26.86
2022-08-11T17:33:48.338Z,26.55
2022-08-11T17:35:51.541Z,26.56
2022-08-11T17:37:55.203Z,26.35
2022-08-11T17:39:59.483Z,26.19
2022-08-11T17:42:22.325Z,26.79
2022-08-11T17:44:44.649Z,26.81
2022-08-11T17:47:06.369Z,26.74
2022-08-11T17:49:11.345Z,26.60
2022-08-11T17:51:37.035Z,27.06
2022-08-11T17:54:02.124Z,27.00
2022-08-11T17:56:42.082Z,27.15
2022-08-11T17:59:03.341Z,26.94
2022-08-11T18:01:09.068Z,27.33
2022-08-11T18:03:32.488Z,27.29
2022-08-11T18:05:37.721Z,27.54
2022-08-11T18:07:58.910Z,27.65
2022-08-11T18:10:20.906Z,28.00
2022-08-11T18:12:41.440Z,28.01
2022-08-11T18:15:05.214Z,28.00
2022-08-11T18:17:28.004Z,28.19
2022-08-11T18:19:49.319Z,28.20
2022-08-11T18:22:14.992Z,28.55
2022-08-11T18:24:36.683Z,28.56
2022-08-11T18:26:57.631Z,28.70
2022-08-11T18:29:18.875Z,28.70
2022-08-11T18:31:40.091Z,28.87
2022-08-11T18:34:07.359Z,28.92
2022-08-11T18:36:31.461Z,28.79
2022-08-11T18:38:52.128Z,28.75
2022-08-11T18:41:13.165Z,28.99
2022-08-11T18:43:38.846Z,29.25
2022-08-11T18:46:06.747Z,29.24
2022-08-11T18:48:33.279Z,29.59
2022-08-11T18:51:30.083Z,29.81
2022-08-11T18:53:38.717Z,30.00
2022-08-11T18:56:00.247Z,30.16
2022-08-11T18:58:24.012Z,30.13
2022-08-11T19:00:45.113Z,30.31
2022-08-11T19:03:07.136Z,30.94
2022-08-11T19:06:35.247Z,30.77
2022-08-11T19:08:12.108Z,31.36
2022-08-11T19:10:33.135Z,31.19
2022-08-11T19:12:59.058Z,31.37
2022-08-11T19:15:20.284Z,31.67
2022-08-11T19:17:44.465Z,32.12
2022-08-11T19:20:06.617Z,31.99
2022-08-11T19:22:27.752Z,33.09
2022-08-11T19:24:49.933Z,32.59
2022-08-11T19:27:11.957Z,33.26
2022-08-11T19:30:07.590Z,32.50
2022-08-11T19:32:14.346Z,33.13
2022-08-11T19:34:36.510Z,33.48
2022-08-11T19:36:57.168Z,34.14
2022-08-11T19:39:18.614Z,33.68
2022-08-11T19:41:56.530Z,33.92
2022-08-11T19:44:18.540Z,34.66
2022-08-11T19:46:41.190Z,34.54
2022-08-11T19:49:02.439Z,34.75
2022-08-11T19:51:26.757Z,35.19
2022-08-11T19:53:47.499Z,34.86
2022-08-11T19:56:09.916Z,35.28
2022-08-11T19:58:32.220Z,34.68
2022-08-11T20:00:52.881Z,34.87
2022-08-11T20:03:13.602Z,34.83
2022-08-11T20:05:33.925Z,35.74
2022-08-11T20:07:54.757Z,36.03
2022-08-11T20:10:18.605Z,36.96
2022-08-11T20:12:40.132Z,36.67
2022-08-11T20:15:02.357Z,36.44
2022-08-11T20:17:23.203Z,36.91
2022-08-11T20:19:55.182Z,38.06
2022-08-11T20:22:17.558Z,38.92
2022-08-11T20:24:38.908Z,39.04
2022-08-11T20:26:59.640Z,39.81
2022-08-11T20:29:20.996Z,39.97
2022-08-11T20:31:43.044Z,40.43
2022-08-11T20:34:05.609Z,40.87
2022-08-11T20:36:27.105Z,41.32
2022-08-11T20:38:49.122Z,41.10
2022-08-11T20:41:11.181Z,41.12
2022-08-11T20:44:08.421Z,41.13
2022-08-11T20:46:14.793Z,41.26
2022-08-11T20:48:37.828Z,41.60
2022-08-11T20:50:59.536Z,41.96
2022-08-11T20:53:20.067Z,42.53
2022-08-11T20:55:52.315Z,42.58
2022-08-11T21:00:55.073Z,43.60
2022-08-11T21:03:16.293Z,43.83
2022-08-11T21:06:10.437Z,45.34
2022-08-11T21:08:31.820Z,46.68
2022-08-11T21:10:55.637Z,47.34
2022-08-11T21:13:24.310Z,46.80
2022-08-11T21:16:01.587Z,46.09
2022-08-11T21:18:27.448Z,46.33
2022-08-11T21:20:50.668Z,46.60
2022-08-11T21:23:23.297Z,46.48
2022-08-11T21:25:46.050Z,46.97
2022-08-11T21:28:08.675Z,47.93
2022-08-11T21:30:29.768Z,47.74
2022-08-11T21:32:50.797Z,48.03
2022-08-11T21:35:11.959Z,49.42
2022-08-11T21:37:34.002Z,49.18
2022-08-11T21:39:56.477Z,49.09
2022-08-11T21:42:17.031Z,49.53
2022-08-11T21:44:37.962Z,49.74
2022-08-11T21:46:58.653Z,50.23
2022-08-11T21:49:19.794Z,51.27
2022-08-11T21:51:44.373Z,51.85
2022-08-11T21:54:05.296Z,52.21
2022-08-11T21:56:29.169Z,52.99
2022-08-11T21:58:49.986Z,53.89
2022-08-11T22:01:10.740Z,53.89
2022-08-11T22:03:31.346Z,54.29
2022-08-11T22:06:04.512Z,57.24
2022-08-11T22:08:25.240Z,55.97
2022-08-11T22:10:46.175Z,55.80
2022-08-11T22:13:08.251Z,56.30
2022-08-11T22:15:29.587Z,55.95
2022-08-11T22:17:53.635Z,55.76
2022-08-11T22:20:16.370Z,56.20
2022-08-11T22:22:52.418Z,57.91
2022-08-11T22:25:16.303Z,59.39
2022-08-11T22:27:39.459Z,61.21
2022-08-11T22:30:01.343Z,62.03
2022-08-11T22:32:22.240Z,61.86
2022-08-11T22:34:52.705Z,61.25
2022-08-11T22:37:27.224Z,60.35
2022-08-11T22:40:01.717Z,61.46
2022-08-11T22:42:33.288Z,63.71
2022-08-11T22:44:54.631Z,63.00
2022-08-11T22:47:19.783Z,61.69
2022-08-11T22:49:42.588Z,61.36
2022-08-11T22:52:19.635Z,61.36
2022-08-11T22:54:40.664Z,62.04
2022-08-11T22:57:01.561Z,62.06
2022-08-11T22:59:22.449Z,62.63
2022-08-11T23:01:54.753Z,67.01
2022-08-11T23:04:19.430Z,68.56
2022-08-11T23:06:40.440Z,67.59
2022-08-11T23:09:01.850Z,67.76
2022-08-11T23:11:24.912Z,69.99
2022-08-11T23:13:45.791Z,70.05
2022-08-11T23:16:06.519Z,69.38
2022-08-11T23:18:27.556Z,68.88
2022-08-11T23:20:55.099Z,69.10
2022-08-11T23:23:17.261Z,70.32
2022-08-11T23:25:37.644Z,70.38
2022-08-11T23:27:58.289Z,71.31
2022-08-11T23:30:20.195Z,70.00
2022-08-11T23:32:42.218Z,72.03
2022-08-11T23:35:40.165Z,73.68
2022-08-11T23:37:48.555Z,73.22
2022-08-11T23:40:09.327Z,71.87
2022-08-11T23:42:30.129Z,71.96
2022-08-11T23:44:56.113Z,71.68
2022-08-11T23:47:18.886Z,75.51
2022-08-11T23:49:39.621Z,75.20
2022-08-11T23:52:00.494Z,74.52
2022-08-11T23:54:23.198Z,74.50
2022-08-11T23:56:43.639Z,77.04
2022-08-11T23:59:04.567Z,77.95
